Time;durP1;ratioP1;P1;durP2;ratioP2;P2;SDS_P1;SDS_P2;PMS_P1;PMS_P2;Temp;Humidity;BMP_temperature;BMP_pressure;BME280_temperature;BME280_humidity;BME280_pressure;Samples;Min_cycle;Max_cycle;Signal;HPM_P1;HPM_P2
2021/07/28 00:00:34;;;;;;;13.45;10.05;;;;;;;18.01;87.39;97904.08;1736455;82;20837;-77
2021/07/28 00:03:02;;;;;;;19.98;12.03;;;;;;;17.97;87.75;97896.86;1736437;82;20899;-77
2021/07/28 00:05:28;;;;;;;13.80;10.68;;;;;;;17.94;88.94;97894.19;1736567;82;21847;-72
2021/07/28 00:07:54;;;;;;;13.45;10.38;;;;;;;18.00;88.21;97888.77;1736275;82;21002;-77
2021/07/28 00:10:20;;;;;;;13.83;10.38;;;;;;;18.02;87.93;97893.34;1736540;82;20863;-72
2021/07/28 00:12:46;;;;;;;14.50;10.25;;;;;;;18.03;87.98;97895.52;1715508;82;21006;-72
2021/07/28 00:15:13;;;;;;;18.00;11.75;;;;;;;18.05;87.70;97896.02;1736606;82;20839;-77
2021/07/28 00:17:51;;;;;;;17.85;10.53;;;;;;;18.12;87.42;97891.38;1736451;82;20991;-77
2021/07/28 00:20:22;;;;;;;19.57;11.63;;;;;;;18.16;87.25;97889.00;1732692;82;21419;-73
2021/07/28 00:25:24;;;;;;;15.28;9.40;;;;;;;18.15;87.88;97894.25;1736740;82;20926;-76
2021/07/28 00:27:50;;;;;;;12.73;9.63;;;;;;;18.12;87.42;97888.64;1736295;82;21014;-72
2021/07/28 00:30:16;;;;;;;16.97;10.38;;;;;;;18.05;87.84;97886.41;1736564;82;21320;-71
2021/07/28 00:32:43;;;;;;;11.33;9.33;;;;;;;17.99;87.63;97883.63;1736302;82;20906;-72
2021/07/28 00:35:09;;;;;;;14.98;9.58;;;;;;;17.93;87.95;97882.20;1736296;82;21407;-77
2021/07/28 00:37:36;;;;;;;13.18;9.18;;;;;;;18.00;87.21;97886.02;1736368;82;21359;-72
2021/07/28 00:40:03;;;;;;;13.90;9.33;;;;;;;18.00;87.19;97872.89;1736556;82;21300;-72
2021/07/28 00:42:30;;;;;;;15.63;8.58;;;;;;;17.99;87.14;97871.28;1736569;82;21721;-77
2021/07/28 00:44:56;;;;;;;14.47;9.63;;;;;;;18.01;87.23;97866.27;1736415;81;20927;-76
2021/07/28 00:47:22;;;;;;;10.93;9.10;;;;;;;18.02;87.20;97867.87;1736378;82;20866;-76
2021/07/28 00:49:48;;;;;;;12.68;9.13;;;;;;;17.99;87.09;97864.43;1736615;82;21002;-72
2021/07/28 00:52:14;;;;;;;15.68;8.80;;;;;;;18.00;87.11;97861.35;1740185;81;20902;-72
2021/07/28 00:54:40;;;;;;;12.20;10.50;;;;;;;18.05;86.83;97861.74;1750528;81;21128;-76
2021/07/28 00:57:09;;;;;;;20.57;8.10;;;;;;;18.00;87.12;97861.92;1750431;82;21357;-77
2021/07/28 00:59:35;;;;;;;18.55;9.93;;;;;;;18.00;87.04;97859.98;1750396;82;21461;-77
2021/07/28 01:02:01;;;;;;;14.50;9.68;;;;;;;17.99;86.75;97862.49;1750365;81;21416;-78
2021/07/28 01:04:27;;;;;;;12.43;9.63;;;;;;;17.97;86.74;97863.97;1750511;82;21032;-73
2021/07/28 01:06:53;;;;;;;12.88;9.33;;;;;;;17.93;86.72;97864.38;1750443;82;21109;-77
2021/07/28 01:09:19;;;;;;;12.35;8.78;;;;;;;17.95;86.72;97864.30;1750636;82;20843;-74
2021/07/28 01:11:46;;;;;;;11.78;8.85;;;;;;;17.95;86.54;97861.56;1739486;82;20866;-77
2021/07/28 01:14:12;;;;;;;17.98;10.15;;;;;;;17.97;86.65;97859.86;1750446;82;20973;-77
2021/07/28 01:16:39;;;;;;;15.45;9.93;;;;;;;17.93;87.08;97856.95;1750466;82;20962;-77
2021/07/28 01:19:11;;;;;;;13.38;9.23;;;;;;;17.94;87.05;97855.02;1750144;82;21711;-77
2021/07/28 01:21:37;;;;;;;10.78;9.38;;;;;;;17.93;87.12;97854.78;1750268;82;21001;-72
2021/07/28 01:24:05;;;;;;;13.90;9.48;;;;;;;17.95;86.88;97858.82;1750254;82;20895;-71
2021/07/28 01:26:32;;;;;;;16.40;10.08;;;;;;;17.96;86.74;97853.57;1750500;82;21422;-72
2021/07/28 01:28:58;;;;;;;15.20;10.85;;;;;;;17.95;86.77;97856.65;1750152;82;20966;-71
2021/07/28 01:31:24;;;;;;;11.38;10.10;;;;;;;17.92;86.43;97856.72;1750476;82;21146;-71
2021/07/28 01:33:50;;;;;;;16.07;10.45;;;;;;;17.87;86.71;97859.67;1750233;82;20834;-78
2021/07/28 01:36:19;;;;;;;13.85;10.95;;;;;;;17.76;86.89;97856.48;1745469;82;20974;-74
2021/07/28 01:38:45;;;;;;;;;;;;;;;17.68;86.85;97850.45;1741858;82;20962;-67
2021/07/28 01:41:11;;;;;;;11.85;8.83;;;;;;;17.68;86.33;97847.70;1725966;82;20142;-68
2021/07/28 01:43:39;;;;;;;9.83;8.00;;;;;;;17.69;86.62;97841.12;1750099;82;22195;-70
2021/07/28 01:46:05;;;;;;;12.63;8.03;;;;;;;17.70;87.16;97847.44;1737103;82;20918;-67
2021/07/28 01:48:32;;;;;;;20.27;9.60;;;;;;;17.71;86.63;97844.36;1720378;83;20949;-67
2021/07/28 01:50:58;;;;;;;13.00;9.58;;;;;;;17.74;86.88;97844.25;1720609;83;20953;-67
2021/07/28 01:53:24;;;;;;;12.85;8.78;;;;;;;17.76;87.31;97840.61;1715336;83;21154;-69
2021/07/28 01:55:55;;;;;;;10.60;8.20;;;;;;;17.81;86.99;97841.80;1743069;82;22005;-67
2021/07/28 01:58:21;;;;;;;13.43;9.88;;;;;;;17.85;86.90;97832.34;1741472;82;20914;-67
2021/07/28 02:00:47;;;;;;;10.93;8.50;;;;;;;17.91;86.73;97833.19;1744617;82;21029;-68
2021/07/28 02:03:13;;;;;;;16.55;9.13;;;;;;;17.97;86.86;97826.96;1744486;82;20908;-67
2021/07/28 02:05:41;;;;;;;23.47;10.50;;;;;;;18.00;86.49;97833.94;1744242;82;21006;-68
2021/07/28 02:16:17;;;;;;;14.47;10.45;;;;;;;18.07;85.74;97829.88;1743699;82;20986;-68
2021/07/28 02:18:43;;;;;;;18.55;11.75;;;;;;;17.98;85.85;97825.82;1741116;82;21352;-67
2021/07/28 02:22:21;;;;;;;18.02;11.63;;;;;;;17.96;85.59;97830.84;1744688;82;20859;-67
2021/07/28 02:24:47;;;;;;;13.25;9.35;;;;;;;17.95;85.52;97835.52;1741625;82;21167;-65
2021/07/28 02:27:13;;;;;;;13.62;9.23;;;;;;;17.90;85.44;97832.96;1740773;82;20863;-66
2021/07/28 02:30:38;;;;;;;13.18;8.60;;;;;;;17.90;85.66;97834.33;1738069;82;20915;-65
2021/07/28 02:40:40;;;;;;;18.52;9.90;;;;;;;17.72;86.36;97830.89;1740793;82;22002;-66
2021/07/28 02:43:06;;;;;;;14.28;10.05;;;;;;;17.64;86.03;97831.70;1744135;82;20985;-66
2021/07/28 02:45:33;;;;;;;11.35;9.00;;;;;;;17.61;85.99;97831.58;1734671;82;20921;-67
2021/07/28 02:48:04;;;;;;;16.23;8.48;;;;;;;17.54;86.45;97835.39;1730786;82;20998;-67
2021/07/28 02:50:32;;;;;;;12.23;8.85;;;;;;;17.52;86.51;97838.47;1722959;82;20946;-66
2021/07/28 02:52:58;;;;;;;17.37;10.30;;;;;;;17.47;86.85;97833.16;1728369;81;21388;-65
2021/07/28 02:55:24;;;;;;;17.42;10.10;;;;;;;17.49;86.80;97840.47;1736200;82;20993;-66
2021/07/28 02:57:50;;;;;;;19.02;11.63;;;;;;;17.54;86.60;97840.87;1729327;82;21054;-66
2021/07/28 03:00:17;;;;;;;13.68;9.55;;;;;;;17.60;86.37;97838.16;1731150;82;20823;-66
2021/07/28 03:02:43;;;;;;;14.20;9.13;;;;;;;17.65;86.27;97843.47;1736298;82;20923;-67
2021/07/28 03:05:12;;;;;;;16.25;9.25;;;;;;;17.71;86.24;97836.14;1736442;81;21147;-67
2021/07/28 03:07:37;;;;;;;12.30;9.33;;;;;;;17.73;86.62;97839.34;1734276;82;21406;-67
2021/07/28 03:10:05;;;;;;;11.93;8.83;;;;;;;17.65;86.95;97831.14;1736499;82;21009;-67
2021/07/28 03:12:31;;;;;;;13.72;9.50;;;;;;;17.55;86.04;97835.05;1735662;82;21391;-67
2021/07/28 03:14:57;;;;;;;12.93;9.73;;;;;;;17.43;86.08;97835.77;1721950;81;20937;-65
2021/07/28 03:17:23;;;;;;;11.83;9.50;;;;;;;17.29;86.31;97833.80;1710234;82;22346;-66
2021/07/28 03:19:49;;;;;;;15.18;8.50;;;;;;;17.24;86.82;97825.75;1728202;82;21560;-65
2021/07/28 03:22:15;;;;;;;16.32;9.10;;;;;;;17.24;86.65;97830.42;1736313;82;21454;-66
2021/07/28 03:24:41;;;;;;;18.67;9.18;;;;;;;17.19;86.94;97818.53;1736211;82;21425;-67
2021/07/28 03:27:07;;;;;;;16.30;9.73;;;;;;;17.23;86.82;97820.60;1733762;82;21002;-66
2021/07/28 03:29:33;;;;;;;12.30;9.35;;;;;;;17.22;86.71;97809.41;1721789;82;21337;-67
2021/07/28 03:31:59;;;;;;;17.60;8.98;;;;;;;17.27;86.77;97813.36;1723710;82;21114;-68
2021/07/28 03:34:25;;;;;;;12.60;8.35;;;;;;;17.29;86.97;97818.73;1736329;82;20934;-66
2021/07/28 03:36:54;;;;;;;12.75;8.83;;;;;;;17.28;86.73;97815.77;1736380;82;21038;-69
2021/07/28 03:39:19;;;;;;;;;;;;;;;17.29;87.08;97811.09;1738790;82;21002;-69
2021/07/28 03:41:45;;;;;;;18.57;9.78;;;;;;;17.35;87.50;97804.30;1736225;81;21135;-67
2021/07/28 03:44:11;;;;;;;11.12;9.00;;;;;;;17.36;87.54;97803.17;1736302;82;20886;-68
2021/07/28 03:46:37;;;;;;;13.55;9.63;;;;;;;17.41;87.74;97798.29;1713588;82;20854;-67
2021/07/28 03:49:03;;;;;;;15.45;9.38;;;;;;;17.43;87.82;97803.44;1721482;82;20879;-67
2021/07/28 03:51:29;;;;;;;25.62;9.38;;;;;;;17.47;87.25;97799.72;1721975;83;20844;-68
2021/07/28 03:53:55;;;;;;;11.10;8.30;;;;;;;17.47;87.43;97798.92;1725678;82;20964;-68
2021/07/28 03:56:24;;;;;;;10.58;8.33;;;;;;;17.50;86.93;97803.73;1744463;82;20922;-75
2021/07/28 03:58:52;;;;;;;10.95;9.00;;;;;;;17.48;87.26;97804.63;1743201;82;21033;-77
2021/07/28 04:01:20;;;;;;;11.93;8.68;;;;;;;17.49;87.38;97800.75;1744419;82;20959;-79
2021/07/28 04:03:46;;;;;;;11.90;9.63;;;;;;;17.54;87.50;97803.32;1743190;81;21041;-73
2021/07/28 04:06:12;;;;;;;12.33;8.23;;;;;;;17.62;86.95;97799.73;1743871;82;21107;-73
2021/07/28 04:08:38;;;;;;;17.27;9.55;;;;;;;17.69;87.02;97798.66;1743997;82;20834;-78
2021/07/28 04:11:04;;;;;;;12.55;8.10;;;;;;;17.73;86.99;97799.61;1744182;82;20941;-73
2021/07/28 04:13:30;;;;;;;11.00;8.30;;;;;;;17.73;86.43;97795.50;1743136;82;21264;-73
2021/07/28 04:15:56;;;;;;;11.97;8.85;;;;;;;17.75;86.53;97794.59;1744008;82;20882;-78
2021/07/28 04:18:22;;;;;;;13.72;8.40;;;;;;;17.82;86.99;97794.64;1744372;82;21144;-78
2021/07/28 04:20:48;;;;;;;12.05;8.48;;;;;;;17.93;86.72;97787.62;1743248;82;20854;-73
2021/07/28 04:23:14;;;;;;;16.30;9.83;;;;;;;18.05;86.51;97789.09;1744543;81;20929;-73
2021/07/28 04:25:40;;;;;;;16.00;10.00;;;;;;;18.15;86.44;97792.80;1744615;82;20970;-78
2021/07/28 04:28:06;;;;;;;13.60;9.70;;;;;;;18.25;86.29;97783.36;1734305;82;20914;-73
2021/07/28 04:30:32;;;;;;;12.33;9.55;;;;;;;18.37;86.10;97781.23;1726958;82;21125;-78
2021/07/28 04:32:58;;;;;;;15.90;9.38;;;;;;;18.45;85.78;97776.24;1725777;82;20883;-78
2021/07/28 04:35:24;;;;;;;12.58;9.70;;;;;;;18.55;85.53;97784.08;1739077;82;20899;-78
2021/07/28 04:37:50;;;;;;;12.68;9.00;;;;;;;18.65;85.27;97782.85;1744293;82;20910;-73
2021/07/28 04:40:17;;;;;;;10.55;8.48;;;;;;;18.73;85.09;97780.63;1744361;82;20966;-73
2021/07/28 04:42:43;;;;;;;15.48;9.33;;;;;;;18.81;85.14;97772.88;1744471;82;21026;-77
2021/07/28 04:45:09;;;;;;;12.10;8.33;;;;;;;18.98;84.95;97780.92;1744286;82;20993;-73
2021/07/28 04:47:35;;;;;;;10.18;7.87;;;;;;;19.07;84.66;97777.50;1744288;82;21005;-73
2021/07/28 04:50:01;;;;;;;13.55;9.48;;;;;;;19.26;84.24;97781.64;1744352;82;20835;-78
2021/07/28 04:52:27;;;;;;;12.00;8.78;;;;;;;19.35;84.07;97776.27;1744579;82;20816;-78
2021/07/28 04:54:53;;;;;;;13.28;8.70;;;;;;;19.50;83.76;97769.86;1737820;81;20990;-73
2021/07/28 04:57:19;;;;;;;13.75;8.15;;;;;;;19.64;83.16;97767.58;1736057;82;20935;-78
2021/07/28 04:59:45;;;;;;;12.55;8.00;;;;;;;19.78;82.43;97766.66;1730244;82;20919;-73
2021/07/28 05:02:11;;;;;;;14.87;8.00;;;;;;;19.85;81.84;97761.38;1721880;82;20939;-78
2021/07/28 05:04:37;;;;;;;15.68;8.45;;;;;;;19.91;81.26;97757.80;1721680;82;20970;-73
2021/07/28 05:07:04;;;;;;;15.28;7.97;;;;;;;19.92;81.09;97748.43;1721683;82;21443;-78
2021/07/28 05:09:30;;;;;;;13.05;7.92;;;;;;;19.97;80.28;97746.22;1725960;82;20973;-78
2021/07/28 05:11:56;;;;;;;14.10;9.03;;;;;;;19.98;80.20;97749.19;1736315;82;20961;-77
2021/07/28 05:14:22;;;;;;;9.93;8.43;;;;;;;20.03;79.46;97748.73;1732658;82;20828;-73
2021/07/28 05:16:48;;;;;;;12.55;9.68;;;;;;;20.03;79.04;97748.73;1722503;82;21422;-73
2021/07/28 05:19:14;;;;;;;15.28;9.38;;;;;;;20.02;79.31;97746.56;1733280;82;21002;-73
2021/07/28 05:21:40;;;;;;;14.50;8.25;;;;;;;20.15;79.04;97751.44;1721882;82;21033;-78
2021/07/28 05:24:06;;;;;;;12.25;7.78;;;;;;;20.22;79.10;97748.33;1721673;82;21032;-73
2021/07/28 05:26:32;;;;;;;15.03;8.78;;;;;;;20.39;79.03;97747.80;1721906;82;21057;-73
2021/07/28 05:28:58;;;;;;;10.50;8.95;;;;;;;20.50;78.59;97744.22;1721448;82;20995;-73
2021/07/28 05:31:24;;;;;;;13.35;8.53;;;;;;;20.62;78.79;97736.50;1721950;82;21154;-73
2021/07/28 05:33:50;;;;;;;16.87;9.80;;;;;;;20.82;78.42;97732.70;1734287;82;20897;-73
2021/07/28 05:36:16;;;;;;;19.60;8.80;;;;;;;21.00;78.35;97740.04;1736511;82;20858;-78
2021/07/28 05:38:42;;;;;;;14.60;8.73;;;;;;;21.16;77.80;97735.91;1736072;82;20835;-78
2021/07/28 05:41:08;;;;;;;10.85;8.83;;;;;;;21.34;77.77;97732.25;1736226;82;21041;-73
2021/07/28 05:43:34;;;;;;;12.20;7.80;;;;;;;21.51;77.31;97736.00;1736150;82;21093;-73
2021/07/28 05:46:00;;;;;;;18.25;8.58;;;;;;;21.66;77.08;97735.18;1722966;82;20871;-78
2021/07/28 05:48:31;;;;;;;12.07;7.97;;;;;;;21.86;76.67;97735.22;1732172;82;20882;-73
2021/07/28 05:50:54;;;;;;;16.85;8.33;;;;;;;21.98;75.96;97735.10;1739396;82;21332;-79
2021/07/28 05:53:20;;;;;;;14.58;8.70;;;;;;;22.16;74.89;97732.75;1726496;82;20947;-79
2021/07/28 05:55:47;;;;;;;12.95;8.45;;;;;;;22.24;75.23;97728.98;1741535;82;21886;-74
2021/07/28 05:58:13;;;;;;;12.37;7.78;;;;;;;22.38;73.81;97729.83;1725470;82;20899;-80
2021/07/28 06:00:39;;;;;;;13.98;8.65;;;;;;;22.36;73.66;97731.58;1737769;82;20854;-79
2021/07/28 06:03:05;;;;;;;10.32;8.43;;;;;;;22.42;73.06;97725.19;1714913;82;20910;-75
2021/07/28 06:05:31;;;;;;;18.05;9.45;;;;;;;22.45;72.66;97727.21;1731613;82;20931;-75
2021/07/28 06:07:57;;;;;;;12.78;8.53;;;;;;;22.68;73.46;97728.06;1726921;82;21899;-80
2021/07/28 06:10:23;;;;;;;12.05;8.35;;;;;;;22.89;72.00;97725.48;1738484;82;20858;-74
2021/07/28 06:12:48;;;;;;;13.75;7.80;;;;;;;22.96;70.87;97730.56;1744496;81;20941;-74
2021/07/28 06:15:14;;;;;;;12.03;8.18;;;;;;;22.86;70.93;97733.94;1744387;82;20882;-74
2021/07/28 06:17:40;;;;;;;12.30;7.65;;;;;;;22.88;71.29;97738.50;1731617;82;20949;-74
2021/07/28 06:20:08;;;;;;;10.25;7.95;;;;;;;23.10;71.92;97736.92;1725906;82;21152;-79
2021/07/28 06:22:35;;;;;;;10.88;8.35;;;;;;;23.39;71.50;97736.01;1727073;82;21365;-80
2021/07/28 06:25:01;;;;;;;14.40;7.35;;;;;;;23.60;70.76;97736.38;1727065;82;21400;-75
2021/07/28 06:27:27;;;;;;;15.53;9.33;;;;;;;23.74;69.95;97728.86;1727209;82;20943;-80
2021/07/28 06:29:53;;;;;;;12.35;8.28;;;;;;;23.92;68.84;97729.91;1735136;82;20915;-80
2021/07/28 06:32:19;;;;;;;12.60;7.67;;;;;;;24.01;68.28;97726.86;1744626;82;21163;-80
2021/07/28 06:34:45;;;;;;;8.38;6.95;;;;;;;24.12;66.51;97725.84;1737334;82;20926;-74
2021/07/28 06:37:12;;;;;;;14.07;9.05;;;;;;;24.11;66.13;97721.48;1727753;82;20953;-80
2021/07/28 06:39:38;;;;;;;9.13;7.65;;;;;;;24.18;66.61;97727.68;1712478;82;20940;-74
2021/07/28 06:42:04;;;;;;;12.40;8.63;;;;;;;24.33;65.67;97721.19;1744464;82;20946;-75
2021/07/28 06:44:30;;;;;;;12.55;8.00;;;;;;;24.39;66.27;97717.50;1739094;81;21582;-81
2021/07/28 06:46:56;;;;;;;14.23;7.92;;;;;;;24.52;65.28;97715.26;1727339;82;20887;-75
2021/07/28 06:49:22;;;;;;;18.73;8.88;;;;;;;24.62;65.74;97717.38;1736247;82;21060;-75
2021/07/28 06:51:48;;;;;;;11.03;8.10;;;;;;;24.80;66.42;97712.80;1744638;82;21057;-75
2021/07/28 06:54:14;;;;;;;15.85;8.00;;;;;;;25.08;65.13;97708.73;1746110;81;20921;-80
2021/07/28 06:56:40;;;;;;;16.93;9.63;;;;;;;25.25;64.65;97704.72;1750603;82;21203;-75
2021/07/28 06:59:06;;;;;;;11.73;8.65;;;;;;;25.34;65.30;97707.16;1720683;82;20872;-76
2021/07/28 07:01:32;;;;;;;13.83;7.72;;;;;;;25.54;64.77;97707.10;1738528;82;20899;-75
2021/07/28 07:03:58;;;;;;;10.78;7.90;;;;;;;25.68;64.49;97704.23;1749436;82;21202;-75
2021/07/28 07:06:25;;;;;;;12.28;7.55;;;;;;;25.86;62.33;97703.18;1750492;82;21005;-80
2021/07/28 07:08:51;;;;;;;11.53;7.75;;;;;;;25.98;62.73;97696.52;1749993;82;21620;-76
2021/07/28 07:11:17;;;;;;;10.28;7.42;;;;;;;26.40;62.40;97701.45;1750450;82;20921;-76
2021/07/28 07:13:43;;;;;;;15.15;8.43;;;;;;;26.78;60.51;97692.83;1750167;82;21563;-76
2021/07/28 07:16:09;;;;;;;14.78;7.15;;;;;;;26.78;58.17;97694.22;1721073;81;20970;-80
2021/07/28 07:18:34;;;;;;;11.55;6.80;;;;;;;26.79;56.09;97687.47;1734277;82;20832;-80
2021/07/28 07:21:00;;;;;;;19.90;7.78;;;;;;;27.02;58.12;97687.11;1737905;82;21128;-76
2021/07/28 07:23:26;;;;;;;11.63;7.12;;;;;;;27.22;57.96;97682.76;1737972;82;20895;-76
2021/07/28 07:25:58;;;;;;;12.07;6.83;;;;;;;27.25;57.47;97681.36;1748804;82;20953;-80
2021/07/28 07:28:20;;;;;;;15.43;7.72;;;;;;;27.46;57.42;97681.16;1749628;82;20985;-76
2021/07/28 07:30:46;;;;;;;11.65;6.85;;;;;;;27.87;55.49;97677.93;1750136;82;20866;-76
2021/07/28 07:35:56;;;;;;;14.25;7.20;;;;;;;28.71;54.82;97662.00;1750173;81;20982;-75
2021/07/28 07:38:22;;;;;;;15.60;7.30;;;;;;;28.99;53.84;97663.05;1750424;82;20838;-79
2021/07/28 07:40:48;;;;;;;13.70;7.00;;;;;;;29.41;53.24;97666.08;1739763;82;20880;-75
2021/07/28 07:43:14;;;;;;;11.15;6.33;;;;;;;30.01;52.33;97662.67;1746043;82;20941;-79
2021/07/28 07:45:40;;;;;;;15.48;7.50;;;;;;;30.56;51.56;97660.17;1740670;82;21019;-79
2021/07/28 07:48:06;;;;;;;11.93;6.72;;;;;;;30.95;49.37;97653.85;1738036;82;20863;-79
2021/07/28 07:50:35;;;;;;;14.53;6.80;;;;;;;31.34;48.72;97658.20;1746916;82;20954;-78
2021/07/28 07:53:00;;;;;;;12.55;7.05;;;;;;;31.70;48.21;97646.34;1750174;82;21010;-77
2021/07/28 07:55:26;;;;;;;13.48;7.05;;;;;;;31.91;46.81;97645.19;1734722;82;21022;-80
2021/07/28 07:57:52;;;;;;;13.90;6.62;;;;;;;32.12;44.75;97641.14;1727254;82;21884;-81
2021/07/28 08:00:18;;;;;;;14.13;6.08;;;;;;;32.34;43.81;97640.12;1727073;82;20942;-80
2021/07/28 08:02:44;;;;;;;10.90;6.30;;;;;;;32.79;44.53;97642.47;1727228;82;20986;-80
2021/07/28 08:05:11;;;;;;;12.07;5.87;;;;;;;33.23;43.44;97635.22;1720001;82;21397;-80
2021/07/28 08:07:37;;;;;;;13.62;6.83;;;;;;;33.22;42.81;97636.45;1726246;82;20990;-80
2021/07/28 08:10:04;;;;;;;14.70;7.17;;;;;;;33.36;41.42;97632.70;1744352;82;21125;-77
2021/07/28 08:12:30;;;;;;;12.80;5.35;;;;;;;33.53;41.53;97627.84;1744689;81;20934;-80
2021/07/28 08:14:56;;;;;;;11.33;4.90;;;;;;;33.93;40.20;97629.78;1744426;82;20961;-81
2021/07/28 08:17:22;;;;;;;9.00;4.50;;;;;;;34.23;39.94;97626.30;1736349;81;20850;-77
2021/07/28 08:19:48;;;;;;;12.00;4.50;;;;;;;34.85;38.54;97626.02;1720262;82;20868;-76
2021/07/28 08:22:14;;;;;;;7.97;3.05;;;;;;;35.36;37.25;97627.36;1727129;82;21155;-77
2021/07/28 08:24:40;;;;;;;10.08;5.33;;;;;;;35.95;32.88;97622.91;1727178;82;20979;-81
2021/07/28 08:27:06;;;;;;;11.90;5.35;;;;;;;35.53;34.33;97631.62;1730164;82;20945;-81
2021/07/28 08:29:32;;;;;;;13.03;5.30;;;;;;;35.86;33.54;97636.27;1744636;82;20815;-77
2021/07/28 08:31:58;;;;;;;9.93;4.75;;;;;;;36.32;34.41;97632.37;1744177;82;20866;-80
2021/07/28 08:34:24;;;;;;;13.35;5.78;;;;;;;36.66;33.41;97631.47;1744660;82;21851;-77
2021/07/28 08:36:50;;;;;;;10.43;3.80;;;;;;;37.09;32.50;97629.16;1744488;81;20941;-80
2021/07/28 08:39:16;;;;;;;7.95;4.50;;;;;;;37.41;30.40;97625.61;1740827;82;21538;-77
2021/07/28 08:41:42;;;;;;;11.53;4.78;;;;;;;37.34;31.18;97624.50;1727068;82;20903;-81
2021/07/28 08:44:08;;;;;;;8.18;4.15;;;;;;;37.68;30.60;97623.42;1727383;82;21459;-81
2021/07/28 08:46:34;;;;;;;9.18;5.05;;;;;;;38.00;30.19;97627.05;1727017;82;21107;-81
2021/07/28 08:49:01;;;;;;;8.50;3.90;;;;;;;38.38;29.65;97625.13;1743656;82;20913;-77
2021/07/28 08:51:27;;;;;;;;;;;;;;;38.40;29.03;97618.98;1746815;81;20951;-78
2021/07/28 08:53:53;;;;;;;16.73;5.00;;;;;;;38.39;29.13;97620.25;1729739;81;20142;-81
2021/07/28 08:56:22;;;;;;;7.87;4.50;;;;;;;38.59;27.23;97619.70;1737178;81;20966;-77
2021/07/28 08:58:48;;;;;;;9.40;4.95;;;;;;;38.89;28.72;97620.71;1723671;82;21162;-81
2021/07/28 09:01:14;;;;;;;10.45;4.30;;;;;;;39.05;27.53;97623.75;1736067;82;21212;-77
2021/07/28 09:03:40;;;;;;;16.40;5.15;;;;;;;39.28;28.30;97618.77;1736217;82;20867;-81
2021/07/28 09:06:07;;;;;;;8.30;3.95;;;;;;;39.74;27.85;97620.66;1722262;82;21019;-80
2021/07/28 09:08:35;;;;;;;11.18;4.42;;;;;;;40.07;25.39;97621.15;1715396;82;20915;-77
2021/07/28 09:11:06;;;;;;;10.28;4.30;;;;;;;39.83;26.57;97625.46;1722445;82;21395;-81
2021/07/28 09:13:39;;;;;;;7.10;4.72;;;;;;;40.35;26.27;97627.97;1721526;82;20923;-81
2021/07/28 09:16:07;;;;;;;9.28;5.72;;;;;;;40.92;25.16;97622.73;1721599;82;20920;-79
2021/07/28 09:18:39;;;;;;;9.00;4.90;;;;;;;40.90;23.97;97619.61;1732901;82;20955;-80
2021/07/28 09:21:22;;;;;;;12.40;4.37;;;;;;;40.79;24.63;97623.69;1722105;81;20971;-80
2021/07/28 09:23:50;;;;;;;12.55;4.70;;;;;;;40.40;24.22;97622.37;1733850;82;21296;-81
2021/07/28 09:26:34;;;;;;;11.25;4.10;;;;;;;39.98;24.93;97621.20;1736098;82;21453;-81
2021/07/28 09:29:19;;;;;;;11.40;5.00;;;;;;;40.89;23.76;97622.95;1736302;82;21006;-76
2021/07/28 09:31:51;;;;;;;10.53;4.92;;;;;;;40.10;24.01;97621.61;1735464;82;20983;-81
2021/07/28 09:34:24;;;;;;;12.05;5.65;;;;;;;38.56;25.74;97623.50;1736470;81;20990;-77
2021/07/28 09:36:53;;;;;;;9.70;5.20;;;;;;;37.40;27.38;97622.63;1735220;81;21781;-80
2021/07/28 09:39:35;;;;;;;10.55;4.15;;;;;;;36.37;29.09;97633.22;1725020;82;21412;-77
2021/07/28 09:42:13;;;;;;;16.65;5.00;;;;;;;35.73;29.71;97632.75;1736179;82;21034;-79
2021/07/28 09:44:40;;;;;;;;;;;;;;;34.78;30.39;97627.02;1738829;82;20963;-79
2021/07/28 09:47:16;;;;;;;10.00;6.00;;;;;;;35.31;30.44;97628.12;1736623;82;26378;-79
2021/07/28 09:49:44;;;;;;;10.20;4.05;;;;;;;36.92;29.18;97609.52;1736284;82;21301;-80
2021/07/28 09:52:32;;;;;;;7.72;4.40;;;;;;;38.23;28.21;97621.39;1733037;82;20964;-77
2021/07/28 09:54:57;;;;;;;12.05;4.80;;;;;;;39.13;26.20;97614.44;1731551;82;21038;-77
2021/07/28 09:57:25;;;;;;;12.35;4.42;;;;;;;39.34;26.59;97615.42;1750008;82;21320;-77
2021/07/28 09:59:54;;;;;;;15.13;4.65;;;;;;;39.92;25.81;97620.34;1736993;82;20978;-77
2021/07/28 10:02:22;;;;;;;8.73;3.67;;;;;;;40.09;23.92;97620.05;1701711;82;21398;-77
2021/07/28 10:04:51;;;;;;;8.45;3.87;;;;;;;38.68;25.18;97623.94;1745003;82;20975;-81
2021/07/28 10:07:19;;;;;;;10.63;4.25;;;;;;;39.41;24.39;97616.48;1740228;82;20982;-81
2021/07/28 10:10:07;;;;;;;12.43;4.22;;;;;;;40.21;23.99;97619.59;1750390;82;21509;-77
2021/07/28 10:12:36;;;;;;;8.10;4.42;;;;;;;40.97;22.98;97615.58;1746039;81;20924;-77
2021/07/28 10:15:04;;;;;;;12.70;5.03;;;;;;;41.51;22.21;97608.95;1744764;82;21145;-77
2021/07/28 10:17:32;;;;;;;9.33;3.98;;;;;;;42.40;21.57;97603.48;1746262;82;20983;-77
2021/07/28 10:19:59;;;;;;;6.30;3.60;;;;;;;42.53;20.22;97603.22;1738425;82;20960;-81
2021/07/28 10:22:25;;;;;;;9.58;3.80;;;;;;;42.54;20.45;97605.41;1738207;82;20959;-81
2021/07/28 10:24:51;;;;;;;8.45;3.45;;;;;;;42.98;19.67;97600.70;1743953;82;20826;-78
2021/07/28 10:27:17;;;;;;;6.73;3.57;;;;;;;43.49;18.66;97598.12;1747579;82;21942;-78
2021/07/28 10:29:43;;;;;;;7.22;3.25;;;;;;;43.47;18.84;97593.58;1738274;82;21014;-78
2021/07/28 10:32:27;;;;;;;9.78;4.45;;;;;;;43.29;19.36;97594.78;1740873;82;20974;-80
2021/07/28 10:34:53;;;;;;;8.90;3.83;;;;;;;43.52;19.38;97592.84;1749747;82;20969;-77
2021/07/28 10:37:19;;;;;;;7.57;3.70;;;;;;;44.10;18.87;97594.66;1750642;82;20914;-79
2021/07/28 10:39:47;;;;;;;8.43;3.50;;;;;;;44.37;18.62;97592.53;1718230;83;21157;-77
2021/07/28 10:42:19;;;;;;;7.72;3.85;;;;;;;44.10;17.88;97594.05;1724239;82;20920;-77
2021/07/28 10:45:09;;;;;;;9.90;3.83;;;;;;;44.10;18.38;97592.62;1743077;82;20949;-77
2021/07/28 10:47:47;;;;;;;9.05;3.42;;;;;;;44.24;18.52;97591.47;1750432;82;20955;-79
2021/07/28 10:50:33;;;;;;;7.08;3.20;;;;;;;44.70;18.00;97591.77;1750362;82;21508;-78
2021/07/28 10:53:00;;;;;;;9.63;4.00;;;;;;;42.78;18.24;97593.69;1750530;81;21100;-77
2021/07/28 10:55:38;;;;;;;6.17;3.60;;;;;;;42.97;19.30;97590.59;1746680;81;20943;-77
2021/07/28 10:58:13;;;;;;;6.50;3.20;;;;;;;43.83;18.62;97592.67;1719733;82;20919;-77
2021/07/28 11:00:47;;;;;;;7.58;3.85;;;;;;;44.31;18.58;97592.39;1718478;82;21392;-76
2021/07/28 11:03:14;;;;;;;7.20;3.25;;;;;;;44.55;17.81;97595.53;1714703;82;20938;-80
2021/07/28 11:05:42;;;;;;;7.62;3.52;;;;;;;44.13;17.80;97597.28;1724962;82;21091;-78
2021/07/28 11:08:13;;;;;;;7.30;3.12;;;;;;;44.91;17.37;97597.17;1714560;82;21018;-81
2021/07/28 11:10:57;;;;;;;6.37;2.65;;;;;;;45.26;17.01;97594.48;1725272;82;20967;-80
2021/07/28 11:13:28;;;;;;;7.08;3.25;;;;;;;45.73;16.85;97594.61;1721584;82;20927;-78
2021/07/28 11:15:59;;;;;;;6.22;3.55;;;;;;;45.61;16.39;97593.06;1721741;82;20963;-78
2021/07/28 11:18:48;;;;;;;8.48;3.42;;;;;;;44.86;16.75;97595.86;1731856;82;21712;-77
2021/07/28 11:21:22;;;;;;;7.85;3.25;;;;;;;44.73;16.70;97589.93;1736341;82;20935;-80
2021/07/28 11:24:01;;;;;;;7.12;3.60;;;;;;;44.85;16.97;97592.11;1735907;82;20947;-80
2021/07/28 11:26:36;;;;;;;11.22;4.20;;;;;;;44.17;17.62;97586.41;1721742;83;21380;-81
2021/07/28 11:29:09;;;;;;;21.30;6.87;;;;;;;44.90;17.39;97590.67;1723216;82;20904;-79
2021/07/28 11:31:41;;;;;;;7.53;3.58;;;;;;;44.86;16.97;97588.72;1736314;82;21332;-80
2021/07/28 11:34:20;;;;;;;6.62;3.45;;;;;;;45.09;16.52;97585.84;1704466;82;21557;-76
2021/07/28 11:36:58;;;;;;;11.63;3.22;;;;;;;45.67;16.79;97579.52;1693039;82;21063;-77
2021/07/28 11:39:24;;;;;;;9.58;3.17;;;;;;;44.62;17.16;97580.73;1739876;82;20915;-77
2021/07/28 11:42:03;;;;;;;90.15;8.70;;;;;;;43.71;17.51;97574.61;1736424;82;20974;-78
2021/07/28 11:44:31;;;;;;;230.72;14.38;;;;;;;44.21;17.48;97576.17;1739166;82;21313;-78
2021/07/28 11:46:57;;;;;;;9.30;3.35;;;;;;;44.80;17.29;97582.91;1733793;82;21061;-81
2021/07/28 11:49:27;;;;;;;8.25;3.08;;;;;;;44.71;16.47;97581.11;1722003;82;21364;-76
2021/07/28 11:51:58;;;;;;;8.98;3.65;;;;;;;44.83;16.75;97584.06;1711313;82;20979;-80